KMLB/MLB METAR and TAF weather

Enter ICAO airport designator
Station Type Date Time Source
KMLB METAR 2020/01/20 12:53 UTC NOAA

KMLB 201253Z 32013KT 10SM OVC031 10/02 A3015 RMK AO2 SLP208 T01000017


Station Type Date Time Source
KMLB Decoded METAR 2020/01/20 12:53 UTC NOAA

MELBOURNE INTERNATIONAL, FL, United States (KMLB) 28-06N 080-39W 10M
Jan 20, 2020 - 07:53 AM EST / 2020.01.20 1253 UTC
Wind: from the NW (320 degrees) at 15 MPH (13 KT):0
Visibility: 10 mile(s):0
Sky conditions: overcast
Temperature: 50.0 F (10.0 C)
Dew Point: 35.1 F (1.7 C)
Relative Humidity: 56%
Pressure (altimeter): 30.15 in. Hg (1020 hPa)
ob: KMLB 201253Z 32013KT 10SM OVC031 10/02 A3015 RMK AO2 SLP208 T01000017
cycle: 13

Station Type Date Time Source
KMLB TAF 2020/01/20 12:30 UTC NOAA

TAF KMLB 201126Z 2012/2112 35011KT P6SM SCT250
TEMPO 2012/2013 BKN025
FM201800 34012KT P6SM FEW030
FM210000 34012G19KT P6SM BKN030

Example: see airport list